x

Gulf Of Maine - 78 Nm East Of Portsmouth, Nh (44005) Wave Buoy

11:50am - Fri 31st Oct 2014 All times are EDT. -4 hours from GMT.

  • Sig Wave height 2.3ft
  • Peak Period 8s
  • Average Period 4s
  • Wind
    11mph, 13mph gusts
  • Sea Temp 55°f
  • 空気 Temp 48°f
  • Sea Pressure 1017.1mb
  • Gulf Of Maine - 78 Nm East Of Portsmouth, Nh
  • Gulf Of Maine - 78 Nm East Of Portsmouth, Nh

More Historic Weather Station data

Upgrade to MSW Pro to gain access to the past 30 days of data for over 8000 Wavebouys and Weather Stations around the globe.

Join Pro

Comparision Forecast

View Surf forecast
   
Fri 10/31 11:50am 2.5ft 8s 4s 11 13 mph 1017.1mb 55f 48f
10:50am 2.5ft 8s 4s 16 18 mph 1017.2mb 55f 48f
9:50am 2.5ft 8s 4s 13 18 mph 1017.4mb 55f 48f
8:50am 2.5ft 8s 4s 11 16 mph 1017.6mb 55f 48f
7:50am 2.5ft 8s 4s 11 13 mph 1016.8mb 55f 48f
6:50am 2.5ft 8s 4s 11 13 mph 1016.2mb 55f 48f
5:50am 2.5ft 4s 4s 11 13 mph 1015.8mb 55f 48f
4:50am 2.5ft 8s 4s 11 16 mph 1015.3mb 55f 49f
3:50am 2.5ft 5s 4s 11 16 mph 1015.2mb 55f 49f
2:50am 3.5ft 5s 4s 13 16 mph 1015.1mb 55f 49f
1:50am 4ft 5s 4s 16 20 mph 1014.9mb 55f 49f
12:50am 3.5ft 4s 4s 16 18 mph 1014.9mb 55f 49f
Thu 10/30 11:50pm 3ft 4s 4s 18 22 mph 1014.5mb 55f 50f
10:50pm 2.5ft 8s 4s 18 22 mph 1014.3mb 55f 51f
9:50pm 2ft 8s 5s 20 25 mph 1014mb 55f 52f
7:50pm 1.6ft 8s 5s 4 7 mph 1013.3mb 55f 53f
6:50pm 2ft 8s 5s 4
mph
1013mb 55f 52f
5:50pm 2ft 8s 5s 4 9 mph 1012.7mb 55f 53f
4:50pm 2ft 8s 5s 4 7 mph 1012mb 55f 53f
3:50pm 2.5ft 8s 5s 7
mph
1011.7mb 55f 53f
2:50pm 2.5ft 8s 5s 7 9 mph 1011.6mb 56f 53f
1:50pm 2.5ft 7s  -  7 9 mph 1011.5mb 55f 53f
12:50pm 2.5ft 7s 5s 7 9 mph 1011.6mb 55f 52f
11:50am 2.5ft 7s 5s 9
mph
1011.9mb 55f 52f
10:50am 2.5ft 6s 5s 4 7 mph 1012.1mb 55f 53f
9:50am 2.5ft 6s 4s 4 7 mph 1012.2mb 55f 53f
8:50am 2.5ft 6s 4s 11 13 mph 1011.9mb 55f 53f
7:50am  -   -   -  9 11 mph 1011.7mb 55f 53f
6:50am 3ft 5s 4s 9 11 mph 1010.9mb 55f 53f
5:50am 3ft 5s 4s 13 16 mph 1010.3mb 55f 54f
4:50am 3ft 5s 4s 16 18 mph 1009.7mb 55f 54f
3:50am 3.5ft 4s 4s 16 20 mph 1009.1mb 55f 55f
2:50am  -   -   -  13
mph
- - -
1:50am 3.5ft 6s 4s 18 20 mph 1009.1mb 55f 55f
12:50am 3.5ft 6s 4s 16 18 mph 1008.8mb 55f 54f
Wed 10/29 11:50pm 3.5ft 7s 4s 18 20 mph 1008.5mb 55f 54f
10:50pm 3.5ft 6s 4s 20 25 mph 1008.8mb 55f 54f
9:50pm 3ft 6s 5s 13 16 mph 1008.4mb 55f 57f
8:50pm 3ft 6s 5s 9 11 mph 1008.5mb 55f 56f
7:50pm 3.5ft 6s 5s 9
mph
1008.8mb 56f 56f
6:50pm 3ft 6s 5s 7 9 mph 1008.4mb 56f 55f
5:50pm 2.5ft 6s 5s 9 11 mph 1007.9mb 56f 55f
4:50pm 3ft 6s 5s 7 9 mph 1007.4mb 56f 55f
3:50pm 3.5ft 6s 5s 7
mph
1007.7mb 56f 56f
2:50pm 3ft 5s  -  7
mph
1007.8mb 55f 57f
1:50pm 2.5ft 5s 4s 9 11 mph 1008.1mb 55f 57f
12:50pm 2.5ft 5s 4s 13 16 mph 1008.6mb 55f 57f
11:50am 3ft 5s 4s 13 16 mph 1009.2mb 55f 57f
10:50am 2.5ft 5s 4s 13 16 mph 1009.8mb 55f 57f
9:50am 2.5ft 5s 4s 11 13 mph 1010.6mb 55f 57f
8:50am 2.5ft 5s 4s 13 16 mph 1010.8mb 55f 57f
7:50am 2.5ft 5s 4s 11 13 mph 1010.7mb 55f 56f
6:50am 2.5ft 5s 4s 13 16 mph 1010.8mb 55f 56f
5:50am 2.5ft 4s 4s 13 18 mph 1011mb 55f 56f
4:50am 2.5ft 5s 4s 18 20 mph 1011.2mb 55f 56f
3:50am 2.5ft 5s 4s 16 18 mph 1011.3mb 55f 56f
2:50am 2.5ft 5s 4s 18 20 mph 1011.9mb 55f 56f
1:50am 2.5ft 5s 4s 18 20 mph 1012.3mb 55f 56f
12:50am 2.5ft 5s 4s 13 16 mph 1012.9mb 55f 56f
Tue 10/28 11:50pm 2.5ft 5s 4s 11 13 mph 1014.1mb 55f 56f
10:50pm 2.5ft 4s 4s 13 16 mph 1014.5mb 55f 56f
9:50pm 3ft 4s 4s 16 18 mph 1014.8mb 55f 57f
8:50pm 2.5ft 4s 4s 20 25 mph 1014.7mb 55f 57f
7:50pm 2.5ft 4s 4s 16 20 mph 1015.4mb 55f 56f
6:50pm 2ft 4s 4s 16 18 mph 1016.1mb 55f 56f
5:50pm 2ft 3s 4s 16 18 mph 1016.2mb 55f 55f
4:50pm 1.6ft 3s 3s 16 18 mph 1016.5mb 55f 55f
3:50pm 1.3ft 7s 3s 16 18 mph 1016.7mb 55f 55f
2:50pm 1.3ft 6s 5s 13 16 mph 1017mb 55f 54f
1:50pm 1ft 7s 5s 9 11 mph 1017.4mb 55f 54f
12:50pm 1ft 7s 4s 7 9 mph 1018mb 55f 54f
11:50am 1ft 7s 4s 7 9 mph 1018.6mb 55f 54f
10:50am 1ft 7s 4s 4 7 mph 1018.6mb 55f 53f
9:50am 1.3ft 3s 4s  -  2 mph 1018.8mb 55f 53f
8:50am 1.3ft 4s 4s 4
mph
1018.7mb 55f 53f
7:50am 1.6ft 4s 4s 4 7 mph 1018mb 55f 53f
6:50am 1.6ft 4s 3s 9 11 mph 1017.9mb 55f 53f
5:50am 2ft 4s 3s 11 13 mph 1017.3mb 55f 53f
4:50am 2ft 4s 4s 13 16 mph 1017mb 55f 53f
3:50am  -   -   -  11 13 mph 1016mb 55f 53f
2:50am  -   -   -  13 18 mph 1015.9mb 55f 53f
1:50am  -   -   -  16 18 mph 1015.3mb 55f 53f
12:50am  -   -   -  18 22 mph 1014.7mb 55f 53f
Mon 10/27 11:50pm  -   -   -  18 22 mph 1014.6mb 55f 53f
10:50pm 4.5ft 5s 5s 20 22 mph 1014.2mb 55f 53f
9:50pm  -   -   -  20 25 mph 1014.1mb 55f 54f
8:50pm 5ft 5s 5s 25 29 mph 1013.5mb 55f 54f
7:50pm 5ft 5s 4s 25 29 mph 1012.8mb 55f 54f
6:50pm 4.5ft 5s 4s 25 29 mph 1011.5mb 55f 55f
5:50pm  -   -   -  22 27 mph 1010.5mb 55f 55f
4:50pm 5ft 5s 4s 25 29 mph 1009.5mb 55f 55f